createdAt,value
2024-02-13T00:03:23.444Z,10.41
2024-02-13T00:08:36.304Z,10.83
2024-02-13T00:13:47.524Z,10.87
2024-02-13T00:18:49.598Z,10.85
2024-02-13T00:23:51.527Z,10.68
2024-02-13T00:28:53.367Z,10.22
2024-02-13T00:33:55.891Z,10.64
2024-02-13T00:38:58.201Z,10.88
2024-02-13T00:43:59.822Z,10.66
2024-02-13T00:49:01.815Z,10.74
2024-02-13T00:54:03.362Z,10.68
2024-02-13T00:59:05.035Z,10.90
2024-02-13T01:04:07.648Z,10.81
2024-02-13T01:09:09.372Z,10.77
2024-02-13T01:14:11.082Z,10.90
2024-02-13T01:19:13.948Z,10.80
2024-02-13T01:24:19.111Z,10.98
2024-02-13T01:29:21.142Z,10.89
2024-02-13T01:34:22.916Z,11.00
2024-02-13T01:39:25.301Z,11.09
2024-02-13T01:44:29.563Z,10.86
2024-02-13T01:49:31.356Z,9.97
2024-02-13T01:54:32.978Z,10.42
2024-02-13T01:59:39.946Z,9.76
2024-02-13T02:04:42.291Z,9.91
2024-02-13T02:09:44.629Z,10.15
2024-02-13T02:14:46.220Z,10.62
2024-02-13T02:19:48.016Z,10.45
2024-02-13T02:24:49.581Z,10.34
2024-02-13T02:29:51.288Z,10.45
2024-02-13T02:34:53.120Z,10.62
2024-02-13T02:39:55.032Z,10.62
2024-02-13T02:44:56.582Z,10.18
2024-02-13T02:49:58.104Z,9.86
2024-02-13T02:54:59.875Z,10.09
2024-02-13T03:00:08.053Z,9.98
2024-02-13T03:05:12.529Z,9.65
2024-02-13T03:10:14.374Z,9.92
2024-02-13T03:15:15.993Z,9.88
2024-02-13T03:20:17.784Z,10.22
2024-02-13T03:25:20.115Z,10.44
2024-02-13T03:30:21.685Z,10.64
2024-02-13T03:35:23.294Z,10.39
2024-02-13T03:40:24.815Z,10.02
2024-02-13T03:45:26.380Z,9.95
2024-02-13T03:50:28.092Z,10.17
2024-02-13T03:55:29.736Z,9.48
2024-02-13T04:00:31.290Z,9.18
2024-02-13T04:05:38.567Z,10.12
2024-02-13T04:10:40.141Z,10.34
2024-02-13T04:15:44.634Z,10.42
2024-02-13T04:20:46.364Z,10.41
2024-02-13T04:25:47.948Z,10.26
2024-02-13T04:30:49.907Z,10.45
2024-02-13T04:35:51.631Z,10.78
2024-02-13T04:40:53.243Z,10.80
2024-02-13T04:45:54.776Z,10.73
2024-02-13T04:50:56.367Z,10.48
2024-02-13T04:55:58.140Z,10.58
2024-02-13T05:01:10.704Z,10.40
2024-02-13T05:06:30.911Z,10.50
2024-02-13T05:11:32.559Z,10.74
2024-02-13T05:16:35.166Z,10.67
2024-02-13T05:21:37.245Z,10.64
2024-02-13T05:26:39.953Z,10.70
2024-02-13T05:31:42.366Z,10.81
2024-02-13T05:36:44.868Z,10.71
2024-02-13T05:41:46.504Z,10.73
2024-02-13T05:46:48.238Z,10.80
2024-02-13T05:51:49.837Z,10.74
2024-02-13T05:56:51.710Z,10.48
2024-02-13T06:01:54.885Z,10.59
2024-02-13T06:06:56.834Z,10.37
2024-02-13T06:11:58.608Z,10.54
2024-02-13T06:17:00.398Z,10.74
2024-02-13T06:22:02.055Z,10.69
2024-02-13T06:27:03.760Z,10.83
2024-02-13T06:32:05.826Z,10.51
2024-02-13T06:37:07.398Z,10.77
2024-02-13T06:42:09.012Z,10.69
2024-02-13T06:47:13.348Z,10.85
2024-02-13T06:52:14.963Z,10.49
2024-02-13T06:57:16.494Z,10.59
2024-02-13T07:02:18.087Z,10.71
2024-02-13T07:07:29.588Z,10.54
2024-02-13T07:12:39.567Z,10.71
2024-02-13T07:17:52.451Z,10.54
2024-02-13T07:22:58.780Z,10.10
2024-02-13T07:28:00.396Z,10.41
2024-02-13T07:33:03.284Z,10.63
2024-02-13T07:38:05.670Z,10.30
2024-02-13T07:43:07.342Z,10.58
2024-02-13T07:48:12.365Z,10.47
2024-02-13T07:53:14.053Z,10.57
2024-02-13T07:58:15.664Z,10.69
2024-02-13T08:03:17.203Z,10.61
2024-02-13T08:08:19.162Z,10.47
2024-02-13T08:13:20.920Z,10.23
2024-02-13T08:18:22.636Z,10.20
2024-02-13T08:23:26.972Z,10.57
2024-02-13T08:28:28.570Z,10.50
2024-02-13T08:33:30.281Z,10.64
2024-02-13T08:38:31.943Z,10.52
2024-02-13T08:43:33.933Z,10.49
2024-02-13T08:48:35.650Z,10.04
2024-02-13T08:53:37.498Z,10.22
2024-02-13T08:58:39.026Z,10.82
2024-02-13T09:03:40.574Z,10.71
2024-02-13T09:08:43.567Z,9.94
2024-02-13T09:13:47.331Z,10.00
2024-02-13T09:18:49.101Z,10.43
2024-02-13T09:23:50.854Z,10.80
2024-02-13T09:28:52.773Z,10.81
2024-02-13T09:33:55.517Z,10.84
2024-02-13T09:38:59.317Z,11.17
2024-02-13T09:44:03.589Z,11.06
2024-02-13T09:49:06.727Z,9.91
2024-02-13T09:54:08.679Z,9.86
2024-02-13T09:59:12.898Z,10.16
2024-02-13T10:04:14.936Z,10.49
2024-02-13T10:09:16.488Z,9.63
2024-02-13T10:14:21.881Z,10.06
2024-02-13T10:19:23.760Z,10.06
2024-02-13T10:24:25.469Z,10.24
2024-02-13T10:29:27.084Z,9.99
2024-02-13T10:34:28.717Z,9.70
2024-02-13T10:39:30.599Z,10.16
2024-02-13T10:44:32.152Z,10.52
2024-02-13T10:49:44.442Z,10.01
2024-02-13T10:54:49.324Z,10.47
2024-02-13T10:59:50.866Z,9.60
2024-02-13T11:04:52.765Z,10.10
2024-02-13T11:09:54.534Z,10.81
2024-02-13T11:15:16.588Z,11.11
2024-02-13T11:20:25.388Z,10.70
2024-02-13T11:25:27.923Z,10.85
2024-02-13T11:30:29.663Z,11.28
2024-02-13T11:35:32.214Z,11.43
2024-02-13T11:40:34.524Z,11.12
2024-02-13T11:45:36.062Z,10.94
2024-02-13T11:50:37.785Z,11.35
2024-02-13T11:55:39.598Z,11.49
2024-02-13T12:00:45.743Z,11.24
2024-02-13T12:05:47.444Z,11.54
2024-02-13T12:10:49.918Z,11.72
2024-02-13T12:15:51.659Z,11.62
2024-02-13T12:20:53.687Z,11.80
2024-02-13T12:26:01.762Z,11.71
2024-02-13T12:31:03.725Z,11.94
2024-02-13T12:36:09.394Z,11.69
2024-02-13T12:41:11.106Z,11.87
2024-02-13T12:46:14.286Z,11.82
2024-02-13T12:51:16.870Z,11.85
2024-02-13T12:56:19.084Z,11.93
2024-02-13T13:01:25.084Z,12.02
2024-02-13T13:06:27.939Z,11.63
2024-02-13T13:11:29.883Z,11.34
2024-02-13T13:16:33.980Z,11.12
2024-02-13T13:21:36.177Z,11.66
2024-02-13T13:26:42.277Z,11.35
2024-02-13T13:31:45.351Z,11.50
2024-02-13T13:36:46.796Z,11.44
2024-02-13T13:41:50.870Z,11.69
2024-02-13T13:46:53.309Z,11.15
2024-02-13T13:51:54.816Z,11.72
2024-02-13T13:56:57.168Z,11.80
2024-02-13T14:01:58.801Z,11.75
2024-02-13T14:07:00.791Z,12.05
2024-02-13T14:12:06.616Z,11.76
2024-02-13T14:17:08.157Z,11.65
2024-02-13T14:22:13.249Z,10.83
2024-02-13T14:27:16.642Z,11.66
2024-02-13T14:32:19.778Z,11.78
2024-02-13T14:37:22.633Z,11.25
2024-02-13T14:42:24.188Z,11.73
2024-02-13T14:47:25.805Z,11.62
2024-02-13T14:52:27.381Z,11.33
2024-02-13T14:57:28.966Z,12.03
2024-02-13T15:02:34.694Z,11.61
2024-02-13T15:07:39.446Z,12.05
2024-02-13T15:12:41.449Z,12.06
2024-02-13T15:17:43.839Z,11.95
2024-02-13T15:22:45.560Z,11.94
2024-02-13T15:27:47.156Z,12.32
2024-02-13T15:32:49.125Z,12.44
2024-02-13T15:38:09.364Z,12.19
2024-02-13T15:43:29.252Z,11.99
2024-02-13T15:48:31.166Z,11.91
2024-02-13T15:53:38.243Z,11.74
2024-02-13T15:58:40.131Z,11.84
2024-02-13T16:03:44.342Z,11.89
2024-02-13T16:08:46.234Z,11.99
2024-02-13T16:13:48.896Z,12.06
2024-02-13T16:18:51.105Z,12.02
2024-02-13T16:23:54.655Z,12.10
2024-02-13T16:28:59.092Z,11.99
2024-02-13T16:34:01.654Z,12.25
2024-02-13T16:39:05.213Z,12.16
2024-02-13T16:44:06.824Z,12.24
2024-02-13T16:49:09.893Z,11.90
2024-02-13T16:54:11.911Z,11.78
2024-02-13T16:59:15.790Z,12.19
2024-02-13T17:04:17.616Z,12.08
2024-02-13T17:09:19.153Z,12.23
2024-02-13T17:14:20.764Z,12.15
2024-02-13T17:19:22.437Z,12.38
2024-02-13T17:24:24.705Z,12.32
2024-02-13T17:29:27.227Z,12.13
2024-02-13T17:34:29.231Z,12.03
2024-02-13T17:39:30.845Z,12.04
2024-02-13T17:44:32.513Z,11.95
2024-02-13T17:49:35.738Z,12.02
2024-02-13T17:54:37.372Z,12.16
2024-02-13T17:59:38.934Z,12.15
2024-02-13T18:04:40.485Z,11.91
2024-02-13T18:09:42.149Z,12.09
2024-02-13T18:14:43.731Z,11.95
2024-02-13T18:19:45.387Z,12.12
2024-02-13T18:24:49.818Z,12.28
2024-02-13T18:29:53.613Z,12.26
2024-02-13T18:34:55.257Z,12.48
2024-02-13T18:39:57.565Z,12.37
2024-02-13T18:44:59.132Z,12.09
2024-02-13T18:50:00.682Z,12.14
2024-02-13T18:55:09.883Z,12.22
2024-02-13T19:00:12.037Z,12.20
2024-02-13T19:05:13.734Z,12.32
2024-02-13T19:10:15.513Z,12.31
2024-02-13T19:15:17.930Z,12.34
2024-02-13T19:20:23.220Z,12.31
2024-02-13T19:25:26.866Z,12.53
2024-02-13T19:30:29.368Z,12.12
2024-02-13T19:35:33.209Z,12.08
2024-02-13T19:40:34.793Z,12.14
2024-02-13T19:45:37.771Z,12.19
2024-02-13T19:50:40.255Z,12.13
2024-02-13T19:55:41.983Z,11.93
2024-02-13T20:00:44.812Z,11.90
2024-02-13T20:05:46.464Z,12.04
2024-02-13T20:10:48.225Z,11.99
2024-02-13T20:15:51.093Z,11.95
2024-02-13T20:20:52.712Z,12.12
2024-02-13T20:25:54.250Z,12.04
2024-02-13T20:30:55.799Z,11.73
2024-02-13T20:36:01.075Z,11.81
2024-02-13T20:41:02.875Z,11.81
2024-02-13T20:46:12.256Z,11.87
2024-02-13T20:51:14.066Z,11.91
2024-02-13T20:56:18.466Z,11.98
2024-02-13T21:01:20.511Z,12.06
2024-02-13T21:06:24.927Z,11.68
2024-02-13T21:11:27.310Z,11.99
2024-02-13T21:16:31.017Z,11.59
2024-02-13T21:21:51.903Z,11.91
2024-02-13T21:26:53.567Z,12.08
2024-02-13T21:31:55.123Z,12.14
2024-02-13T21:36:56.679Z,12.30
2024-02-13T21:41:59.107Z,12.20
2024-02-13T21:47:00.927Z,12.28
2024-02-13T21:52:02.454Z,12.26
2024-02-13T21:57:07.473Z,12.22
2024-02-13T22:02:09.134Z,12.12
2024-02-13T22:07:10.678Z,12.15
2024-02-13T22:12:12.281Z,12.27
2024-02-13T22:17:13.841Z,12.16
2024-02-13T22:22:15.401Z,12.04
2024-02-13T22:27:17.258Z,12.11
2024-02-13T22:32:18.785Z,12.24
2024-02-13T22:37:21.333Z,12.33
2024-02-13T22:42:23.396Z,12.19
2024-02-13T22:47:25.037Z,12.24
2024-02-13T22:52:27.282Z,12.09
2024-02-13T22:57:29.103Z,12.12
2024-02-13T23:02:32.104Z,12.01
2024-02-13T23:07:33.999Z,12.06
2024-02-13T23:12:38.682Z,12.06
2024-02-13T23:17:40.280Z,12.03
2024-02-13T23:22:41.855Z,12.11
2024-02-13T23:27:43.521Z,11.99
2024-02-13T23:32:45.397Z,12.05
2024-02-13T23:37:47.157Z,12.09
2024-02-13T23:42:51.791Z,12.14
2024-02-13T23:47:53.763Z,12.20
2024-02-13T23:52:58.021Z,12.20
2024-02-13T23:58:00.074Z,12.25
